sensor_id;sensor_type;location;lat;lon;timestamp;temperature;humidity
18511;DHT22;9384;48.044;11.616;2022-08-04T00:01:30;17.70;99.90
18511;DHT22;9384;48.044;11.616;2022-08-04T00:04:00;17.80;99.90
18511;DHT22;9384;48.044;11.616;2022-08-04T00:06:39;17.90;99.90
18511;DHT22;9384;48.044;11.616;2022-08-04T00:09:15;17.90;99.90
18511;DHT22;9384;48.044;11.616;2022-08-04T00:11:44;17.90;99.90
18511;DHT22;9384;48.044;11.616;2022-08-04T00:14:13;17.80;99.90
18511;DHT22;9384;48.044;11.616;2022-08-04T00:16:43;17.60;99.90
18511;DHT22;9384;48.044;11.616;2022-08-04T00:19:16;17.50;99.90
18511;DHT22;9384;48.044;11.616;2022-08-04T00:21:47;17.50;99.90
18511;DHT22;9384;48.044;11.616;2022-08-04T00:24:17;17.40;99.90
18511;DHT22;9384;48.044;11.616;2022-08-04T00:26:46;17.30;99.90
18511;DHT22;9384;48.044;11.616;2022-08-04T00:29:13;17.20;99.90
18511;DHT22;9384;48.044;11.616;2022-08-04T00:31:41;17.10;99.90
18511;DHT22;9384;48.044;11.616;2022-08-04T00:34:09;17.00;99.90
18511;DHT22;9384;48.044;11.616;2022-08-04T00:36:37;17.00;99.90
18511;DHT22;9384;48.044;11.616;2022-08-04T00:39:11;17.10;99.90
18511;DHT22;9384;48.044;11.616;2022-08-04T00:41:48;17.20;99.90
18511;DHT22;9384;48.044;11.616;2022-08-04T00:44:26;17.30;99.90
18511;DHT22;9384;48.044;11.616;2022-08-04T00:47:08;17.40;99.90
18511;DHT22;9384;48.044;11.616;2022-08-04T00:49:52;17.40;99.90
18511;DHT22;9384;48.044;11.616;2022-08-04T00:52:34;17.40;99.90
18511;DHT22;9384;48.044;11.616;2022-08-04T00:55:20;17.30;99.90
18511;DHT22;9384;48.044;11.616;2022-08-04T00:58:02;17.20;99.90
18511;DHT22;9384;48.044;11.616;2022-08-04T01:00:39;17.10;99.90
18511;DHT22;9384;48.044;11.616;2022-08-04T01:03:15;17.00;99.90
18511;DHT22;9384;48.044;11.616;2022-08-04T01:05:54;16.90;99.90
18511;DHT22;9384;48.044;11.616;2022-08-04T01:08:44;16.80;99.90
18511;DHT22;9384;48.044;11.616;2022-08-04T01:11:26;16.80;99.90
18511;DHT22;9384;48.044;11.616;2022-08-04T01:14:11;16.70;99.90
18511;DHT22;9384;48.044;11.616;2022-08-04T01:16:47;16.60;99.90
18511;DHT22;9384;48.044;11.616;2022-08-04T01:19:30;16.50;99.90
18511;DHT22;9384;48.044;11.616;2022-08-04T01:22:23;16.50;99.90
18511;DHT22;9384;48.044;11.616;2022-08-04T01:25:11;16.40;99.90
18511;DHT22;9384;48.044;11.616;2022-08-04T01:28:05;16.40;99.90
18511;DHT22;9384;48.044;11.616;2022-08-04T01:30:35;16.40;99.90
18511;DHT22;9384;48.044;11.616;2022-08-04T01:33:08;16.40;99.90
18511;DHT22;9384;48.044;11.616;2022-08-04T01:35:42;16.50;99.90
18511;DHT22;9384;48.044;11.616;2022-08-04T01:38:16;16.50;99.90
18511;DHT22;9384;48.044;11.616;2022-08-04T01:40:44;16.40;99.90
18511;DHT22;9384;48.044;11.616;2022-08-04T01:43:12;16.30;99.90
18511;DHT22;9384;48.044;11.616;2022-08-04T01:45:41;16.20;99.90
18511;DHT22;9384;48.044;11.616;2022-08-04T01:48:09;16.20;99.90
18511;DHT22;9384;48.044;11.616;2022-08-04T01:50:38;16.10;99.90
18511;DHT22;9384;48.044;11.616;2022-08-04T01:53:09;16.00;99.90
18511;DHT22;9384;48.044;11.616;2022-08-04T01:55:36;15.90;99.90
18511;DHT22;9384;48.044;11.616;2022-08-04T01:58:04;15.80;99.90
18511;DHT22;9384;48.044;11.616;2022-08-04T02:00:31;15.80;99.90
18511;DHT22;9384;48.044;11.616;2022-08-04T02:02:59;15.90;99.90
18511;DHT22;9384;48.044;11.616;2022-08-04T02:05:26;15.90;99.90
18511;DHT22;9384;48.044;11.616;2022-08-04T02:08:04;15.70;99.90
18511;DHT22;9384;48.044;11.616;2022-08-04T02:10:43;15.70;99.90
18511;DHT22;9384;48.044;11.616;2022-08-04T02:13:22;15.60;99.90
18511;DHT22;9384;48.044;11.616;2022-08-04T02:15:56;15.50;99.90
18511;DHT22;9384;48.044;11.616;2022-08-04T02:18:30;15.50;99.90
18511;DHT22;9384;48.044;11.616;2022-08-04T02:20:58;15.60;99.90
18511;DHT22;9384;48.044;11.616;2022-08-04T02:23:33;15.80;99.90
18511;DHT22;9384;48.044;11.616;2022-08-04T02:26:02;15.90;99.90
18511;DHT22;9384;48.044;11.616;2022-08-04T02:28:34;16.10;99.90
18511;DHT22;9384;48.044;11.616;2022-08-04T02:31:07;16.20;99.90
18511;DHT22;9384;48.044;11.616;2022-08-04T02:33:41;16.30;99.90
18511;DHT22;9384;48.044;11.616;2022-08-04T02:36:10;16.40;99.90
18511;DHT22;9384;48.044;11.616;2022-08-04T02:38:54;16.40;99.90
18511;DHT22;9384;48.044;11.616;2022-08-04T02:41:23;16.40;99.90
18511;DHT22;9384;48.044;11.616;2022-08-04T02:43:54;16.40;99.90
18511;DHT22;9384;48.044;11.616;2022-08-04T02:46:21;16.50;99.90
18511;DHT22;9384;48.044;11.616;2022-08-04T02:48:51;16.60;99.90
18511;DHT22;9384;48.044;11.616;2022-08-04T02:51:24;16.60;99.90
18511;DHT22;9384;48.044;11.616;2022-08-04T02:53:54;16.60;99.90
18511;DHT22;9384;48.044;11.616;2022-08-04T02:56:22;16.50;99.90
18511;DHT22;9384;48.044;11.616;2022-08-04T02:58:52;16.40;99.90
18511;DHT22;9384;48.044;11.616;2022-08-04T03:01:21;16.10;99.90
18511;DHT22;9384;48.044;11.616;2022-08-04T03:04:02;16.00;99.90
18511;DHT22;9384;48.044;11.616;2022-08-04T03:07:09;15.90;99.90
18511;DHT22;9384;48.044;11.616;2022-08-04T03:10:17;15.90;99.90
18511;DHT22;9384;48.044;11.616;2022-08-04T03:13:19;15.90;99.90
18511;DHT22;9384;48.044;11.616;2022-08-04T03:19:17;15.50;99.90
18511;DHT22;9384;48.044;11.616;2022-08-04T03:25:28;15.50;99.90
18511;DHT22;9384;48.044;11.616;2022-08-04T03:28:35;15.60;99.90
18511;DHT22;9384;48.044;11.616;2022-08-04T03:34:08;15.70;99.90
18511;DHT22;9384;48.044;11.616;2022-08-04T03:40:10;15.70;99.90
18511;DHT22;9384;48.044;11.616;2022-08-04T03:46:20;15.60;99.90
18511;DHT22;9384;48.044;11.616;2022-08-04T03:49:09;15.70;99.90
18511;DHT22;9384;48.044;11.616;2022-08-04T03:51:49;15.60;99.90
18511;DHT22;9384;48.044;11.616;2022-08-04T03:55:10;15.50;99.90
18511;DHT22;9384;48.044;11.616;2022-08-04T03:57:57;15.40;99.90
18511;DHT22;9384;48.044;11.616;2022-08-04T04:00:32;15.50;99.90
18511;DHT22;9384;48.044;11.616;2022-08-04T04:06:43;15.40;99.90
18511;DHT22;9384;48.044;11.616;2022-08-04T04:09:41;15.40;99.90
18511;DHT22;9384;48.044;11.616;2022-08-04T04:12:24;15.30;99.90
18511;DHT22;9384;48.044;11.616;2022-08-04T04:15:02;15.40;99.90
18511;DHT22;9384;48.044;11.616;2022-08-04T04:17:48;15.30;99.90
18511;DHT22;9384;48.044;11.616;2022-08-04T04:23:56;15.20;99.90
18511;DHT22;9384;48.044;11.616;2022-08-04T04:26:43;15.20;99.90
18511;DHT22;9384;48.044;11.616;2022-08-04T04:29:37;15.20;99.90
18511;DHT22;9384;48.044;11.616;2022-08-04T04:32:18;15.20;99.90
18511;DHT22;9384;48.044;11.616;2022-08-04T04:34:58;15.20;99.90
18511;DHT22;9384;48.044;11.616;2022-08-04T04:37:50;15.30;99.90
18511;DHT22;9384;48.044;11.616;2022-08-04T04:40:31;15.30;99.90
18511;DHT22;9384;48.044;11.616;2022-08-04T04:43:16;15.30;99.90
18511;DHT22;9384;48.044;11.616;2022-08-04T04:45:54;15.50;99.90
18511;DHT22;9384;48.044;11.616;2022-08-04T04:48:32;15.60;99.90
18511;DHT22;9384;48.044;11.616;2022-08-04T04:51:08;15.70;99.90
18511;DHT22;9384;48.044;11.616;2022-08-04T04:53:44;15.60;99.90
18511;DHT22;9384;48.044;11.616;2022-08-04T04:56:21;15.70;99.90
18511;DHT22;9384;48.044;11.616;2022-08-04T04:58:52;15.70;99.90
18511;DHT22;9384;48.044;11.616;2022-08-04T05:01:40;15.80;99.90
18511;DHT22;9384;48.044;11.616;2022-08-04T05:04:40;15.90;99.90
18511;DHT22;9384;48.044;11.616;2022-08-04T05:07:38;16.00;99.90
18511;DHT22;9384;48.044;11.616;2022-08-04T05:10:25;16.10;99.90
18511;DHT22;9384;48.044;11.616;2022-08-04T05:13:05;16.20;99.90
18511;DHT22;9384;48.044;11.616;2022-08-04T05:15:41;16.30;99.90
18511;DHT22;9384;48.044;11.616;2022-08-04T05:18:13;16.40;99.90
18511;DHT22;9384;48.044;11.616;2022-08-04T05:20:44;16.60;99.90
18511;DHT22;9384;48.044;11.616;2022-08-04T05:23:15;16.60;99.90
18511;DHT22;9384;48.044;11.616;2022-08-04T05:25:54;16.80;99.90
18511;DHT22;9384;48.044;11.616;2022-08-04T05:28:25;16.90;99.90
18511;DHT22;9384;48.044;11.616;2022-08-04T05:30:58;17.10;99.90
18511;DHT22;9384;48.044;11.616;2022-08-04T05:33:27;17.20;99.90
18511;DHT22;9384;48.044;11.616;2022-08-04T05:36:02;17.40;99.90
18511;DHT22;9384;48.044;11.616;2022-08-04T05:38:35;17.50;99.90
18511;DHT22;9384;48.044;11.616;2022-08-04T05:41:03;17.70;99.90
18511;DHT22;9384;48.044;11.616;2022-08-04T05:43:32;17.90;99.90
18511;DHT22;9384;48.044;11.616;2022-08-04T05:46:00;18.10;99.90
18511;DHT22;9384;48.044;11.616;2022-08-04T05:48:28;18.20;99.90
18511;DHT22;9384;48.044;11.616;2022-08-04T05:50:56;18.50;99.90
18511;DHT22;9384;48.044;11.616;2022-08-04T05:53:24;18.60;99.90
18511;DHT22;9384;48.044;11.616;2022-08-04T05:55:51;18.80;99.90
18511;DHT22;9384;48.044;11.616;2022-08-04T05:58:19;18.90;99.90
18511;DHT22;9384;48.044;11.616;2022-08-04T06:00:48;19.10;99.90
18511;DHT22;9384;48.044;11.616;2022-08-04T06:03:18;19.30;99.90
18511;DHT22;9384;48.044;11.616;2022-08-04T06:05:47;19.40;99.90
18511;DHT22;9384;48.044;11.616;2022-08-04T06:08:14;19.60;99.90
18511;DHT22;9384;48.044;11.616;2022-08-04T06:10:43;19.70;99.90
18511;DHT22;9384;48.044;11.616;2022-08-04T06:13:12;19.90;99.90
18511;DHT22;9384;48.044;11.616;2022-08-04T06:15:42;20.00;99.90
18511;DHT22;9384;48.044;11.616;2022-08-04T06:18:12;20.10;99.90
18511;DHT22;9384;48.044;11.616;2022-08-04T06:20:41;20.30;99.90
18511;DHT22;9384;48.044;11.616;2022-08-04T06:23:12;20.40;99.90
18511;DHT22;9384;48.044;11.616;2022-08-04T06:25:43;20.60;99.90
18511;DHT22;9384;48.044;11.616;2022-08-04T06:28:10;20.70;99.90
18511;DHT22;9384;48.044;11.616;2022-08-04T06:30:39;20.80;99.90
18511;DHT22;9384;48.044;11.616;2022-08-04T06:33:08;20.90;99.90
18511;DHT22;9384;48.044;11.616;2022-08-04T06:35:51;21.10;99.90
18511;DHT22;9384;48.044;11.616;2022-08-04T06:38:20;21.20;99.90
18511;DHT22;9384;48.044;11.616;2022-08-04T06:40:47;21.30;99.90
18511;DHT22;9384;48.044;11.616;2022-08-04T06:43:15;21.40;99.90
18511;DHT22;9384;48.044;11.616;2022-08-04T06:45:43;21.50;99.90
18511;DHT22;9384;48.044;11.616;2022-08-04T06:48:13;21.60;99.90
18511;DHT22;9384;48.044;11.616;2022-08-04T06:50:42;21.70;99.90
18511;DHT22;9384;48.044;11.616;2022-08-04T06:53:11;21.80;99.90
18511;DHT22;9384;48.044;11.616;2022-08-04T06:55:39;21.90;99.90
18511;DHT22;9384;48.044;11.616;2022-08-04T06:58:06;22.00;99.90
18511;DHT22;9384;48.044;11.616;2022-08-04T07:00:35;22.10;99.90
18511;DHT22;9384;48.044;11.616;2022-08-04T07:03:02;22.20;99.90
18511;DHT22;9384;48.044;11.616;2022-08-04T07:05:30;22.30;99.90
18511;DHT22;9384;48.044;11.616;2022-08-04T07:07:58;22.40;99.90
18511;DHT22;9384;48.044;11.616;2022-08-04T07:10:27;22.60;99.90
18511;DHT22;9384;48.044;11.616;2022-08-04T07:12:55;22.70;99.90
18511;DHT22;9384;48.044;11.616;2022-08-04T07:15:23;22.80;99.90
18511;DHT22;9384;48.044;11.616;2022-08-04T07:17:50;23.00;99.90
18511;DHT22;9384;48.044;11.616;2022-08-04T07:20:18;23.00;99.90
18511;DHT22;9384;48.044;11.616;2022-08-04T07:22:46;23.20;99.90
18511;DHT22;9384;48.044;11.616;2022-08-04T07:25:14;23.30;99.90
18511;DHT22;9384;48.044;11.616;2022-08-04T07:27:43;23.50;99.90
18511;DHT22;9384;48.044;11.616;2022-08-04T07:30:10;23.50;99.90
18511;DHT22;9384;48.044;11.616;2022-08-04T07:32:37;23.60;99.90
18511;DHT22;9384;48.044;11.616;2022-08-04T07:35:06;23.80;99.90
18511;DHT22;9384;48.044;11.616;2022-08-04T07:37:34;23.90;99.90
18511;DHT22;9384;48.044;11.616;2022-08-04T07:40:01;24.00;99.90
18511;DHT22;9384;48.044;11.616;2022-08-04T07:42:28;24.10;99.90
18511;DHT22;9384;48.044;11.616;2022-08-04T07:44:56;24.20;99.90
18511;DHT22;9384;48.044;11.616;2022-08-04T07:47:23;24.30;99.90
18511;DHT22;9384;48.044;11.616;2022-08-04T07:49:51;24.50;99.90
18511;DHT22;9384;48.044;11.616;2022-08-04T07:52:19;24.50;99.90
18511;DHT22;9384;48.044;11.616;2022-08-04T07:54:47;24.70;99.90
18511;DHT22;9384;48.044;11.616;2022-08-04T07:57:16;24.80;99.90
18511;DHT22;9384;48.044;11.616;2022-08-04T07:59:45;24.90;99.90
18511;DHT22;9384;48.044;11.616;2022-08-04T08:02:13;25.00;99.90
18511;DHT22;9384;48.044;11.616;2022-08-04T08:04:41;25.00;99.90
18511;DHT22;9384;48.044;11.616;2022-08-04T08:07:09;25.10;99.90
18511;DHT22;9384;48.044;11.616;2022-08-04T08:09:36;25.20;99.90
18511;DHT22;9384;48.044;11.616;2022-08-04T08:12:05;25.30;99.90
18511;DHT22;9384;48.044;11.616;2022-08-04T08:14:33;25.40;99.90
18511;DHT22;9384;48.044;11.616;2022-08-04T08:17:01;25.50;99.90
18511;DHT22;9384;48.044;11.616;2022-08-04T08:19:30;25.50;99.90
18511;DHT22;9384;48.044;11.616;2022-08-04T08:21:57;25.60;99.90
18511;DHT22;9384;48.044;11.616;2022-08-04T08:24:24;25.70;99.90
18511;DHT22;9384;48.044;11.616;2022-08-04T08:26:51;25.70;99.90
18511;DHT22;9384;48.044;11.616;2022-08-04T08:29:18;25.80;99.90
18511;DHT22;9384;48.044;11.616;2022-08-04T08:31:46;26.00;99.90
18511;DHT22;9384;48.044;11.616;2022-08-04T08:34:13;26.00;99.90
18511;DHT22;9384;48.044;11.616;2022-08-04T08:36:45;26.00;99.90
18511;DHT22;9384;48.044;11.616;2022-08-04T08:39:17;26.10;99.90
18511;DHT22;9384;48.044;11.616;2022-08-04T08:42:14;26.20;99.90
18511;DHT22;9384;48.044;11.616;2022-08-04T08:45:14;26.20;99.90
18511;DHT22;9384;48.044;11.616;2022-08-04T08:48:16;26.40;99.90
18511;DHT22;9384;48.044;11.616;2022-08-04T08:51:11;26.50;99.90
18511;DHT22;9384;48.044;11.616;2022-08-04T08:53:58;26.50;99.90
18511;DHT22;9384;48.044;11.616;2022-08-04T08:56:35;26.60;99.90
18511;DHT22;9384;48.044;11.616;2022-08-04T08:59:31;26.70;99.90
18511;DHT22;9384;48.044;11.616;2022-08-04T09:02:20;26.70;99.90
18511;DHT22;9384;48.044;11.616;2022-08-04T09:05:13;26.80;99.90
18511;DHT22;9384;48.044;11.616;2022-08-04T09:08:02;26.90;99.90
18511;DHT22;9384;48.044;11.616;2022-08-04T09:10:39;27.00;99.90
18511;DHT22;9384;48.044;11.616;2022-08-04T09:13:12;27.10;99.90
18511;DHT22;9384;48.044;11.616;2022-08-04T09:15:46;27.20;99.90
18511;DHT22;9384;48.044;11.616;2022-08-04T09:18:20;27.20;99.90
18511;DHT22;9384;48.044;11.616;2022-08-04T09:20:53;27.20;99.90
18511;DHT22;9384;48.044;11.616;2022-08-04T09:23:27;27.30;99.90
18511;DHT22;9384;48.044;11.616;2022-08-04T09:26:02;27.50;99.90
18511;DHT22;9384;48.044;11.616;2022-08-04T09:28:41;27.60;99.90
18511;DHT22;9384;48.044;11.616;2022-08-04T09:31:12;27.60;99.90
18511;DHT22;9384;48.044;11.616;2022-08-04T09:33:46;27.70;99.90
18511;DHT22;9384;48.044;11.616;2022-08-04T09:36:23;27.70;99.90
18511;DHT22;9384;48.044;11.616;2022-08-04T09:39:03;27.80;99.90
18511;DHT22;9384;48.044;11.616;2022-08-04T09:41:37;27.80;99.90
18511;DHT22;9384;48.044;11.616;2022-08-04T09:44:17;27.90;99.90
18511;DHT22;9384;48.044;11.616;2022-08-04T09:46:52;28.10;99.90
18511;DHT22;9384;48.044;11.616;2022-08-04T09:49:28;28.20;99.90
18511;DHT22;9384;48.044;11.616;2022-08-04T09:52:04;28.40;99.90
18511;DHT22;9384;48.044;11.616;2022-08-04T09:54:42;28.50;99.90
18511;DHT22;9384;48.044;11.616;2022-08-04T09:57:21;28.60;99.90
18511;DHT22;9384;48.044;11.616;2022-08-04T09:59:56;28.90;99.90
18511;DHT22;9384;48.044;11.616;2022-08-04T10:02:25;29.10;99.90
18511;DHT22;9384;48.044;11.616;2022-08-04T10:04:55;29.30;99.90
18511;DHT22;9384;48.044;11.616;2022-08-04T10:10:31;29.50;99.90
18511;DHT22;9384;48.044;11.616;2022-08-04T10:13:20;29.70;99.90
18511;DHT22;9384;48.044;11.616;2022-08-04T10:15:57;29.80;99.90
18511;DHT22;9384;48.044;11.616;2022-08-04T10:18:39;29.80;99.90
18511;DHT22;9384;48.044;11.616;2022-08-04T10:21:14;29.90;99.90
18511;DHT22;9384;48.044;11.616;2022-08-04T10:23:58;29.90;99.90
18511;DHT22;9384;48.044;11.616;2022-08-04T10:26:35;30.00;99.90
18511;DHT22;9384;48.044;11.616;2022-08-04T10:29:11;30.30;99.90
18511;DHT22;9384;48.044;11.616;2022-08-04T10:31:43;30.40;99.90
18511;DHT22;9384;48.044;11.616;2022-08-04T10:34:15;30.30;99.90
18511;DHT22;9384;48.044;11.616;2022-08-04T10:36:51;30.40;99.90
18511;DHT22;9384;48.044;11.616;2022-08-04T10:39:24;30.40;99.90
18511;DHT22;9384;48.044;11.616;2022-08-04T10:42:02;30.60;99.90
18511;DHT22;9384;48.044;11.616;2022-08-04T10:44:43;30.60;99.90
18511;DHT22;9384;48.044;11.616;2022-08-04T10:47:16;30.90;99.70
18511;DHT22;9384;48.044;11.616;2022-08-04T10:49:45;30.70;99.60
18511;DHT22;9384;48.044;11.616;2022-08-04T10:52:17;31.10;99.90
18511;DHT22;9384;48.044;11.616;2022-08-04T10:54:50;31.30;99.30
18511;DHT22;9384;48.044;11.616;2022-08-04T10:57:22;31.50;99.90
18511;DHT22;9384;48.044;11.616;2022-08-04T10:59:57;31.80;98.40
18511;DHT22;9384;48.044;11.616;2022-08-04T11:02:33;32.30;99.20
18511;DHT22;9384;48.044;11.616;2022-08-04T11:05:14;32.90;98.30
18511;DHT22;9384;48.044;11.616;2022-08-04T11:07:44;32.70;95.40
18511;DHT22;9384;48.044;11.616;2022-08-04T11:10:13;33.00;95.90
18511;DHT22;9384;48.044;11.616;2022-08-04T11:12:43;32.70;95.90
18511;DHT22;9384;48.044;11.616;2022-08-04T11:15:20;32.70;95.90
18511;DHT22;9384;48.044;11.616;2022-08-04T11:17:54;32.70;96.60
18511;DHT22;9384;48.044;11.616;2022-08-04T11:20:27;32.50;96.30
18511;DHT22;9384;48.044;11.616;2022-08-04T11:23:07;32.90;94.20
18511;DHT22;9384;48.044;11.616;2022-08-04T11:25:42;33.20;94.00
18511;DHT22;9384;48.044;11.616;2022-08-04T11:28:21;33.60;93.50
18511;DHT22;9384;48.044;11.616;2022-08-04T11:30:52;33.20;95.00
18511;DHT22;9384;48.044;11.616;2022-08-04T11:33:30;32.80;92.40
18511;DHT22;9384;48.044;11.616;2022-08-04T11:36:02;32.80;91.70
18511;DHT22;9384;48.044;11.616;2022-08-04T11:38:37;33.10;93.20
18511;DHT22;9384;48.044;11.616;2022-08-04T11:41:14;33.50;91.10
18511;DHT22;9384;48.044;11.616;2022-08-04T11:43:50;33.60;94.00
18511;DHT22;9384;48.044;11.616;2022-08-04T11:46:23;34.50;92.90
18511;DHT22;9384;48.044;11.616;2022-08-04T11:48:57;34.80;86.60
18511;DHT22;9384;48.044;11.616;2022-08-04T11:51:26;35.10;86.60
18511;DHT22;9384;48.044;11.616;2022-08-04T11:53:55;35.60;86.90
18511;DHT22;9384;48.044;11.616;2022-08-04T11:56:23;34.80;82.50
18511;DHT22;9384;48.044;11.616;2022-08-04T11:58:51;34.50;84.10
18511;DHT22;9384;48.044;11.616;2022-08-04T12:01:24;34.00;83.80
18511;DHT22;9384;48.044;11.616;2022-08-04T12:04:01;32.90;83.00
18511;DHT22;9384;48.044;11.616;2022-08-04T12:06:35;33.10;83.10
18511;DHT22;9384;48.044;11.616;2022-08-04T12:09:10;33.40;83.40
18511;DHT22;9384;48.044;11.616;2022-08-04T12:11:55;33.70;83.70
18511;DHT22;9384;48.044;11.616;2022-08-04T12:14:27;34.10;83.30
18511;DHT22;9384;48.044;11.616;2022-08-04T12:16:58;35.00;81.80
18511;DHT22;9384;48.044;11.616;2022-08-04T12:19:30;34.80;84.30
18511;DHT22;9384;48.044;11.616;2022-08-04T12:22:02;35.60;85.30
18511;DHT22;9384;48.044;11.616;2022-08-04T12:24:34;34.90;77.50
18511;DHT22;9384;48.044;11.616;2022-08-04T12:27:14;33.70;81.30
18511;DHT22;9384;48.044;11.616;2022-08-04T12:29:43;34.70;85.90
18511;DHT22;9384;48.044;11.616;2022-08-04T12:32:21;34.70;78.70
18511;DHT22;9384;48.044;11.616;2022-08-04T12:35:00;34.80;77.90
18511;DHT22;9384;48.044;11.616;2022-08-04T12:37:37;35.00;79.30
18511;DHT22;9384;48.044;11.616;2022-08-04T12:40:14;35.60;78.90
18511;DHT22;9384;48.044;11.616;2022-08-04T12:42:47;35.40;76.50
18511;DHT22;9384;48.044;11.616;2022-08-04T12:45:18;34.90;75.10
18511;DHT22;9384;48.044;11.616;2022-08-04T12:47:48;34.90;78.50
18511;DHT22;9384;48.044;11.616;2022-08-04T12:50:16;35.00;77.10
18511;DHT22;9384;48.044;11.616;2022-08-04T12:52:47;34.80;76.60
18511;DHT22;9384;48.044;11.616;2022-08-04T12:55:17;34.70;75.20
18511;DHT22;9384;48.044;11.616;2022-08-04T12:57:47;34.70;75.00
18511;DHT22;9384;48.044;11.616;2022-08-04T13:00:26;34.90;73.90
18511;DHT22;9384;48.044;11.616;2022-08-04T13:02:59;35.10;74.60
18511;DHT22;9384;48.044;11.616;2022-08-04T13:05:29;34.60;74.00
18511;DHT22;9384;48.044;11.616;2022-08-04T13:07:56;34.40;71.40
18511;DHT22;9384;48.044;11.616;2022-08-04T13:10:26;34.20;72.10
18511;DHT22;9384;48.044;11.616;2022-08-04T13:12:56;34.30;72.50
18511;DHT22;9384;48.044;11.616;2022-08-04T13:15:26;34.70;75.50
18511;DHT22;9384;48.044;11.616;2022-08-04T13:17:56;35.00;72.20
18511;DHT22;9384;48.044;11.616;2022-08-04T13:20:25;35.00;76.60
18511;DHT22;9384;48.044;11.616;2022-08-04T13:22:58;35.10;75.40
18511;DHT22;9384;48.044;11.616;2022-08-04T13:25:28;35.60;77.10
18511;DHT22;9384;48.044;11.616;2022-08-04T13:27:57;36.10;77.30
18511;DHT22;9384;48.044;11.616;2022-08-04T13:30:25;35.60;74.30
18511;DHT22;9384;48.044;11.616;2022-08-04T13:32:54;35.20;72.40
18511;DHT22;9384;48.044;11.616;2022-08-04T13:35:24;34.60;75.80
18511;DHT22;9384;48.044;11.616;2022-08-04T13:37:53;34.80;72.30
18511;DHT22;9384;48.044;11.616;2022-08-04T13:40:22;34.80;71.40
18511;DHT22;9384;48.044;11.616;2022-08-04T13:42:52;35.00;71.10
18511;DHT22;9384;48.044;11.616;2022-08-04T13:45:21;35.40;72.20
18511;DHT22;9384;48.044;11.616;2022-08-04T13:47:50;35.50;71.90
18511;DHT22;9384;48.044;11.616;2022-08-04T13:50:20;34.80;72.20
18511;DHT22;9384;48.044;11.616;2022-08-04T13:52:51;34.20;71.70
18511;DHT22;9384;48.044;11.616;2022-08-04T13:55:24;34.00;72.20
18511;DHT22;9384;48.044;11.616;2022-08-04T13:58:00;33.60;72.40
18511;DHT22;9384;48.044;11.616;2022-08-04T14:00:40;34.00;75.30
18511;DHT22;9384;48.044;11.616;2022-08-04T14:03:09;34.20;73.10
18511;DHT22;9384;48.044;11.616;2022-08-04T14:05:39;33.70;73.70
18511;DHT22;9384;48.044;11.616;2022-08-04T14:08:13;33.80;75.10
18511;DHT22;9384;48.044;11.616;2022-08-04T14:10:40;34.00;72.60
18511;DHT22;9384;48.044;11.616;2022-08-04T14:13:09;34.50;76.00
18511;DHT22;9384;48.044;11.616;2022-08-04T14:15:38;34.70;74.20
18511;DHT22;9384;48.044;11.616;2022-08-04T14:18:19;34.70;73.50
18511;DHT22;9384;48.044;11.616;2022-08-04T14:20:58;35.00;72.20
18511;DHT22;9384;48.044;11.616;2022-08-04T14:23:26;35.50;73.60
18511;DHT22;9384;48.044;11.616;2022-08-04T14:25:53;35.80;68.30
18511;DHT22;9384;48.044;11.616;2022-08-04T14:28:30;35.10;66.80
18511;DHT22;9384;48.044;11.616;2022-08-04T14:31:08;35.10;68.20
18511;DHT22;9384;48.044;11.616;2022-08-04T14:33:37;35.50;68.40
18511;DHT22;9384;48.044;11.616;2022-08-04T14:36:04;35.80;66.10
18511;DHT22;9384;48.044;11.616;2022-08-04T14:38:49;35.90;69.50
18511;DHT22;9384;48.044;11.616;2022-08-04T14:41:18;36.70;66.50
18511;DHT22;9384;48.044;11.616;2022-08-04T14:43:49;37.10;68.60
18511;DHT22;9384;48.044;11.616;2022-08-04T14:46:17;37.30;69.10
18511;DHT22;9384;48.044;11.616;2022-08-04T14:49:04;37.40;68.30
18511;DHT22;9384;48.044;11.616;2022-08-04T14:51:39;36.90;66.00
18511;DHT22;9384;48.044;11.616;2022-08-04T14:54:07;37.00;64.70
18511;DHT22;9384;48.044;11.616;2022-08-04T14:56:35;37.00;67.20
18511;DHT22;9384;48.044;11.616;2022-08-04T14:59:06;37.50;63.80
18511;DHT22;9384;48.044;11.616;2022-08-04T15:01:34;38.20;69.30
18511;DHT22;9384;48.044;11.616;2022-08-04T15:04:02;39.00;65.20
18511;DHT22;9384;48.044;11.616;2022-08-04T15:06:31;39.10;63.80
18511;DHT22;9384;48.044;11.616;2022-08-04T15:09:00;39.90;61.50
18511;DHT22;9384;48.044;11.616;2022-08-04T15:11:28;39.60;58.60
18511;DHT22;9384;48.044;11.616;2022-08-04T15:13:57;40.40;60.90
18511;DHT22;9384;48.044;11.616;2022-08-04T15:16:27;41.20;59.70
18511;DHT22;9384;48.044;11.616;2022-08-04T15:18:55;40.70;53.90
18511;DHT22;9384;48.044;11.616;2022-08-04T15:21:23;40.00;54.40
18511;DHT22;9384;48.044;11.616;2022-08-04T15:23:50;39.40;54.90
18511;DHT22;9384;48.044;11.616;2022-08-04T15:26:21;38.80;55.90
18511;DHT22;9384;48.044;11.616;2022-08-04T15:28:51;38.40;54.50
18511;DHT22;9384;48.044;11.616;2022-08-04T15:31:20;37.30;55.40
18511;DHT22;9384;48.044;11.616;2022-08-04T15:33:49;37.70;54.50
18511;DHT22;9384;48.044;11.616;2022-08-04T15:36:24;38.60;55.10
18511;DHT22;9384;48.044;11.616;2022-08-04T15:39:00;39.60;54.10
18511;DHT22;9384;48.044;11.616;2022-08-04T15:41:34;40.80;52.90
18511;DHT22;9384;48.044;11.616;2022-08-04T15:44:22;40.60;53.10
18511;DHT22;9384;48.044;11.616;2022-08-04T15:47:12;40.60;54.00
18511;DHT22;9384;48.044;11.616;2022-08-04T15:49:41;42.20;57.10
18511;DHT22;9384;48.044;11.616;2022-08-04T15:52:09;42.50;54.80
18511;DHT22;9384;48.044;11.616;2022-08-04T15:54:37;39.90;52.30
18511;DHT22;9384;48.044;11.616;2022-08-04T15:57:05;40.10;54.60
18511;DHT22;9384;48.044;11.616;2022-08-04T15:59:57;39.60;53.10
18511;DHT22;9384;48.044;11.616;2022-08-04T16:02:38;38.70;51.90
18511;DHT22;9384;48.044;11.616;2022-08-04T16:05:34;39.40;54.00
18511;DHT22;9384;48.044;11.616;2022-08-04T16:08:14;40.60;51.80
18511;DHT22;9384;48.044;11.616;2022-08-04T16:10:43;41.10;51.30
18511;DHT22;9384;48.044;11.616;2022-08-04T16:13:11;39.60;51.60
18511;DHT22;9384;48.044;11.616;2022-08-04T16:15:43;39.90;50.70
18511;DHT22;9384;48.044;11.616;2022-08-04T16:18:12;40.80;52.50
18511;DHT22;9384;48.044;11.616;2022-08-04T16:20:46;41.60;52.20
18511;DHT22;9384;48.044;11.616;2022-08-04T16:23:33;42.80;48.50
18511;DHT22;9384;48.044;11.616;2022-08-04T16:26:05;44.30;49.30
18511;DHT22;9384;48.044;11.616;2022-08-04T16:28:37;44.40;47.50
18511;DHT22;9384;48.044;11.616;2022-08-04T16:31:08;45.00;47.20
18511;DHT22;9384;48.044;11.616;2022-08-04T16:33:36;44.40;44.40
18511;DHT22;9384;48.044;11.616;2022-08-04T16:36:06;44.10;44.80
18511;DHT22;9384;48.044;11.616;2022-08-04T16:39:01;44.10;45.90
18511;DHT22;9384;48.044;11.616;2022-08-04T16:41:46;42.00;45.10